Time;durP1;ratioP1;P1;durP2;ratioP2;P2;SDS_P1;SDS_P2;PMS_P1;PMS_P2;Temp;Humidity;BMP_temperature;BMP_pressure;BME280_temperature;BME280_humidity;BME280_pressure;Samples;Min_cycle;Max_cycle;Signal;HPM_P1;HPM_P2
2021/10/09 00:00:50;;;;;;;;;;;;;;;20.71;77.02;102684.53;7279825;19;154005;-52
2021/10/09 00:03:17;;;;;;;;;;;;;;;20.71;76.69;102678.94;7283480;19;151850;-50
2021/10/09 00:05:44;;;;;;;;;;;;;;;20.70;77.33;102682.84;7284208;19;152622;-52
2021/10/09 00:08:14;;;;;;;;;;;;;;;20.71;77.07;102678.94;7281572;19;153529;-51
2021/10/09 00:10:42;;;;;;;;;;;;;;;20.71;77.25;102690.16;7283656;19;151802;-51
2021/10/09 00:13:09;;;;;;;;;;;;;;;20.71;77.47;102678.94;7288512;19;152644;-51
2021/10/09 00:15:36;;;;;;;;;;;;;;;20.73;77.97;102681.44;7282821;19;152089;-51
2021/10/09 00:18:03;;;;;;;;;;;;;;;20.71;78.62;102678.94;7282535;19;153650;-51
2021/10/09 00:20:31;;;;;;;;;;;;;;;20.71;78.56;102678.06;7279814;19;155832;-51
2021/10/09 00:22:58;;;;;;;;;;;;;;;20.70;78.42;102673.56;7284428;19;152234;-51
2021/10/09 00:25:25;;;;;;;;;;;;;;;20.70;78.32;102666.00;7290508;19;152818;-51
2021/10/09 00:27:52;;;;;;;;;;;;;;;20.72;78.36;102665.69;7288854;19;153905;-50
2021/10/09 00:30:19;;;;;;;;;;;;;;;20.70;78.46;102663.19;7288893;19;151831;-51
2021/10/09 00:32:46;;;;;;;;;;;;;;;20.69;78.70;102661.47;7298294;19;153415;-51
2021/10/09 00:35:13;;;;;;;;;;;;;;;20.70;78.18;102654.75;7287440;19;152268;-51
2021/10/09 00:37:39;;;;;;;;;;;;;;;20.70;78.40;102660.38;7291103;19;153543;-51
2021/10/09 00:40:07;;;;;;;;;;;;;;;20.71;78.20;102662.06;7288182;19;152483;-51
2021/10/09 00:42:34;;;;;;;;;;;;;;;20.69;78.37;102655.88;7290810;19;151799;-51
2021/10/09 00:45:01;;;;;;;;;;;;;;;20.73;78.31;102659.81;7290632;19;152597;-51
2021/10/09 00:47:28;;;;;;;;;;;;;;;20.71;78.53;102661.22;7289919;19;153802;-51
2021/10/09 00:49:55;;;;;;;;;;;;;;;20.70;79.17;102651.94;7283989;19;152851;-51
2021/10/09 00:52:24;;;;;;;;;;;;;;;20.71;78.73;102656.47;7290931;19;152623;-51
2021/10/09 00:54:51;;;;;;;;;;;;;;;20.70;78.70;102654.75;7296846;19;152235;-51
2021/10/09 00:57:19;;;;;;;;;;;;;;;20.69;78.98;102650.25;7290899;19;152600;-51
2021/10/09 00:59:48;;;;;;;;;;;;;;;20.70;78.95;102646.31;7288023;19;154159;-56
2021/10/09 01:02:16;;;;;;;;;;;;;;;20.71;79.35;102645.22;7287491;19;151757;-51
2021/10/09 01:04:45;;;;;;;;;;;;;;;20.71;79.29;102645.22;7290576;19;152655;-50
2021/10/09 01:07:12;;;;;;;;;;;;;;;20.70;79.71;102642.66;7289240;19;152544;-51
2021/10/09 01:09:39;;;;;;;;;;;;;;;20.70;79.57;102640.72;7288124;19;152212;-51
2021/10/09 01:12:05;;;;;;;;;;;;;;;20.71;79.32;102641.56;7290954;19;152942;-50
2021/10/09 01:14:32;;;;;;;;;;;;;;;20.70;79.49;102643.53;7287251;19;153440;-51
2021/10/09 01:16:59;;;;;;;;;;;;;;;20.69;79.68;102647.44;7295773;19;153103;-51
2021/10/09 01:19:26;;;;;;;;;;;;;;;20.70;79.82;102637.06;7287838;19;153981;-51
2021/10/09 01:21:53;;;;;;;;;;;;;;;20.70;79.71;102634.25;7289010;19;151820;-51
2021/10/09 01:24:21;;;;;;;;;;;;;;;20.70;79.78;102634.25;7289959;19;152049;-51
2021/10/09 01:26:48;;;;;;;;;;;;;;;20.70;80.23;102634.25;7288664;19;153608;-51
2021/10/09 01:29:15;;;;;;;;;;;;;;;20.69;79.99;102633.41;7290463;19;151474;-51
2021/10/09 01:31:42;;;;;;;;;;;;;;;20.70;80.41;102625.81;7289078;19;151979;-51
2021/10/09 01:34:10;;;;;;;;;;;;;;;20.69;80.71;102627.78;7284830;19;153122;-51
2021/10/09 01:36:38;;;;;;;;;;;;;;;20.69;80.43;102624.97;7287357;19;151695;-51
2021/10/09 01:39:05;;;;;;;;;;;;;;;20.69;80.46;102619.34;7294104;19;153392;-51
2021/10/09 01:41:37;;;;;;;;;;;;;;;20.71;80.81;102616.28;7289502;19;152280;-50
2021/10/09 01:44:04;;;;;;;;;;;;;;;20.69;81.00;102610.06;7287911;19;151956;-52
2021/10/09 01:46:31;;;;;;;;;;;;;;;20.70;80.71;102626.66;7288099;19;152262;-51
2021/10/09 01:48:57;;;;;;;;;;;;;;;20.70;80.67;102614.56;7286750;19;152449;-51
2021/10/09 01:51:26;;;;;;;;;;;;;;;20.69;81.04;102612.88;7282750;19;151856;-52
2021/10/09 01:53:53;;;;;;;;;;;;;;;20.68;80.96;102617.66;7286411;19;153817;-52
2021/10/09 01:56:19;;;;;;;;;;;;;;;20.69;80.25;102612.88;7288902;19;152009;-52
2021/10/09 01:58:46;;;;;;;;;;;;;;;20.68;80.77;102612.03;7288179;19;153073;-52
2021/10/09 02:01:13;;;;;;;;;;;;;;;20.69;80.85;102622.16;7293421;19;153199;-51
2021/10/09 02:03:40;;;;;;;;;;;;;;;20.69;80.57;102613.72;7288594;19;151894;-52
2021/10/09 02:06:07;;;;;;;;;;;;;;;20.69;80.88;102621.31;7287658;19;153573;-52
2021/10/09 02:08:33;;;;;;;;;;;;;;;20.69;80.22;102621.31;7287950;19;151819;-51
2021/10/09 02:11:03;;;;;;;;;;;;;;;20.67;80.24;102615.13;7288840;19;153737;-52
2021/10/09 02:16:19;;;;;;;;;;;;;;;20.69;80.11;102618.50;7288221;19;153494;-52
2021/10/09 02:26:28;;;;;;;;;;;;;;;20.68;79.78;102619.59;7286773;19;153195;-52
2021/10/09 02:28:55;;;;;;;;;;;;;;;20.68;79.65;102617.66;7286077;19;151958;-51
2021/10/09 02:31:22;;;;;;;;;;;;;;;20.66;80.11;102614.28;7287247;19;153158;-56
2021/10/09 02:33:49;;;;;;;;;;;;;;;20.65;80.14;102606.97;7287349;19;153608;-51
2021/10/09 02:36:16;;;;;;;;;;;;;;;20.67;79.30;102604.72;7286796;19;152111;-52
2021/10/09 02:38:43;;;;;;;;;;;;;;;20.66;79.72;102605.84;7288251;19;153810;-51
2021/10/09 02:41:09;;;;;;;;;;;;;;;20.65;79.89;102604.16;7285089;19;154106;-52
2021/10/09 02:43:36;;;;;;;;;;;;;;;20.63;80.57;102606.38;7296177;19;151844;-52
2021/10/09 02:46:03;;;;;;;;;;;;;;;20.63;80.65;102603.56;7286003;19;155155;-52
2021/10/09 02:48:30;;;;;;;;;;;;;;;20.63;80.90;102600.75;7288250;19;151965;-52
2021/10/09 02:50:57;;;;;;;;;;;;;;;20.64;80.86;102598.78;7284322;19;153490;-52
2021/10/09 02:53:24;;;;;;;;;;;;;;;20.62;81.10;102589.81;7282910;19;152449;-52
2021/10/09 02:55:50;;;;;;;;;;;;;;;20.62;81.04;102590.66;7287776;19;151994;-51
2021/10/09 02:58:18;;;;;;;;;;;;;;;20.63;80.64;102600.75;7287247;19;153965;-52
2021/10/09 03:00:45;;;;;;;;;;;;;;;20.62;80.86;102596.28;7282326;19;153228;-52
2021/10/09 03:03:11;;;;;;;;;;;;;;;20.61;80.92;102600.19;7285829;19;152108;-51
2021/10/09 03:05:38;;;;;;;;;;;;;;;20.62;80.73;102589.81;7294138;19;152747;-52
2021/10/09 03:08:05;;;;;;;;;;;;;;;20.62;80.79;102590.66;7287570;19;151901;-52
2021/10/09 03:10:32;;;;;;;;;;;;;;;20.61;80.68;102597.38;7287145;19;153418;-52
2021/10/09 03:12:59;;;;;;;;;;;;;;;20.61;80.74;102591.78;7286421;19;153353;-51
2021/10/09 03:15:26;;;;;;;;;;;;;;;20.60;80.53;102595.69;7285592;19;151582;-52
2021/10/09 03:17:53;;;;;;;;;;;;;;;20.60;80.64;102590.06;7286001;19;152868;-52
2021/10/09 03:20:20;;;;;;;;;;;;;;;20.59;80.93;102590.31;7285310;19;153709;-51
2021/10/09 03:22:47;;;;;;;;;;;;;;;20.61;80.24;102591.78;7287201;19;151817;-52
2021/10/09 03:25:15;;;;;;;;;;;;;;;20.59;80.64;102593.97;7286327;19;152421;-51
2021/10/09 03:27:42;;;;;;;;;;;;;;;20.59;80.69;102591.19;7292843;19;153507;-52
2021/10/09 03:30:09;;;;;;;;;;;;;;;20.61;80.50;102583.34;7283869;19;152343;-52
2021/10/09 03:32:36;;;;;;;;;;;;;;;20.59;80.68;102585.56;7286192;19;153603;-52
2021/10/09 03:35:03;;;;;;;;;;;;;;;20.59;81.02;102582.75;7284085;19;152123;-51
2021/10/09 03:37:30;;;;;;;;;;;;;;;20.58;80.95;102578.25;7287045;19;153527;-52
2021/10/09 03:40:01;;;;;;;;;;;;;;;20.59;81.03;102581.91;7285798;19;153638;-53
2021/10/09 03:42:36;;;;;;;;;;;;;;;20.57;80.68;102582.19;7286073;19;151761;-51
2021/10/09 03:45:35;;;;;;;;;;;;;;;20.57;80.99;102582.19;7285790;19;153459;-52
2021/10/09 03:52:54;;;;;;;;;;;;;;;20.57;80.70;102586.97;7277289;19;153486;-52
2021/10/09 03:55:21;;;;;;;;;;;;;;;20.57;80.23;102579.38;7286539;19;151826;-51
2021/10/09 03:57:48;;;;;;;;;;;;;;;20.56;80.59;102580.50;7284892;19;153231;-52
2021/10/09 04:00:16;;;;;;;;;;;;;;;20.55;80.05;102578.78;7283865;19;153410;-51
2021/10/09 04:02:42;;;;;;;;;;;;;;;20.55;80.34;102587.22;7283309;19;152096;-51
2021/10/09 04:05:09;;;;;;;;;;;;;;;20.55;80.47;102581.59;7285399;19;153332;-51
2021/10/09 04:07:36;;;;;;;;;;;;;;;20.56;80.00;102585.25;7283506;19;153692;-51
2021/10/09 04:10:05;;;;;;;;;;;;;;;20.55;80.49;102589.16;7283844;19;152803;-52
2021/10/09 04:12:32;;;;;;;;;;;;;;;20.53;80.80;102592.28;7292232;19;152662;-52
2021/10/09 04:14:59;;;;;;;;;;;;;;;20.53;80.86;102600.69;7282613;19;152262;-51
2021/10/09 04:17:25;;;;;;;;;;;;;;;20.53;80.15;102585.81;7285767;19;152595;-52
2021/10/09 04:19:52;;;;;;;;;;;;;;;20.53;80.36;102586.66;7280894;19;152696;-51
2021/10/09 04:22:19;;;;;;;;;;;;;;;20.52;80.21;102587.75;7280965;19;151863;-52
2021/10/09 04:24:46;;;;;;;;;;;;;;;20.54;80.04;102593.09;7284205;19;153392;-52
2021/10/09 04:27:13;;;;;;;;;;;;;;;20.51;80.50;102586.06;7284199;19;153685;-52
2021/10/09 04:29:39;;;;;;;;;;;;;;;20.50;80.40;102595.59;7285052;19;152091;-52
2021/10/09 04:32:06;;;;;;;;;;;;;;;20.51;79.77;102591.69;7284757;19;152844;-51
2021/10/09 04:34:33;;;;;;;;;;;;;;;20.51;79.96;102593.63;7290782;19;151831;-52
2021/10/09 04:37:00;;;;;;;;;;;;;;;20.51;80.08;102591.69;7284725;19;152745;-52
2021/10/09 04:39:26;;;;;;;;;;;;;;;20.50;80.00;102598.41;7283731;19;154074;-51
2021/10/09 04:41:53;;;;;;;;;;;;;;;20.49;79.95;102591.09;7282645;19;151602;-52
2021/10/09 04:44:22;;;;;;;;;;;;;;;20.49;79.57;102595.88;7284037;19;151817;-51
2021/10/09 04:46:49;;;;;;;;;;;;;;;20.47;79.98;102596.16;7281827;19;152161;-51
2021/10/09 04:49:16;;;;;;;;;;;;;;;20.48;79.90;102594.19;7284168;19;151680;-51
2021/10/09 04:51:43;;;;;;;;;;;;;;;20.47;79.96;102598.94;7283738;19;152706;-51
2021/10/09 04:54:09;;;;;;;;;;;;;;;20.48;79.77;102599.81;7281708;19;153511;-52
2021/10/09 04:56:36;;;;;;;;;;;;;;;20.47;79.55;102590.53;7282539;19;152770;-51
2021/10/09 04:59:03;;;;;;;;;;;;;;;20.47;80.16;102596.16;7281689;19;153910;-51
2021/10/09 05:01:30;;;;;;;;;;;;;;;20.48;80.07;102591.38;7280163;19;152026;-52
2021/10/09 05:03:57;;;;;;;;;;;;;;;20.47;79.98;102592.47;7282577;19;153892;-52
2021/10/09 05:06:23;;;;;;;;;;;;;;;20.46;80.14;102591.63;7280646;19;154427;-52
2021/10/09 05:08:50;;;;;;;;;;;;;;;20.46;79.92;102597.25;7281942;19;152464;-52
2021/10/09 05:11:18;;;;;;;;;;;;;;;20.45;79.72;102592.75;7286062;19;153240;-52
2021/10/09 05:13:45;;;;;;;;;;;;;;;20.44;79.78;102587.41;7286461;19;153786;-52
2021/10/09 05:16:11;;;;;;;;;;;;;;;20.43;80.28;102586.56;7296424;19;151896;-52
2021/10/09 05:18:38;;;;;;;;;;;;;;;20.45;79.79;102598.34;7285491;19;153938;-52
2021/10/09 05:21:07;;;;;;;;;;;;;;;20.46;79.57;102597.25;7288102;19;151864;-51
2021/10/09 05:23:35;;;;;;;;;;;;;;;20.45;78.95;102589.94;7289035;19;153003;-51
2021/10/09 05:26:02;;;;;;;;;;;;;;;20.45;78.85;102601.16;7287245;19;153305;-52
2021/10/09 05:28:40;;;;;;;;;;;;;;;20.45;78.98;102594.69;7286185;19;152133;-51
2021/10/09 05:31:08;;;;;;;;;;;;;;;20.44;79.00;102598.66;7288313;19;153709;-51
2021/10/09 05:36:03;;;;;;;;;;;;;;;20.45;78.46;102600.31;7286487;19;152904;-51
2021/10/09 05:38:29;;;;;;;;;;;;;;;20.42;78.68;102605.38;7295351;19;152752;-51
2021/10/09 05:40:57;;;;;;;;;;;;;;;20.41;79.21;102606.47;7287696;19;152060;-52
2021/10/09 05:43:25;;;;;;;;;;;;;;;20.41;79.01;102608.44;7287941;19;152070;-51
2021/10/09 05:45:52;;;;;;;;;;;;;;;20.41;78.89;102600.84;7284641;19;153250;-52
2021/10/09 05:48:19;;;;;;;;;;;;;;;20.41;79.05;102602.81;7286785;19;152218;-51
2021/10/09 05:53:27;;;;;;;;;;;;;;;20.40;78.94;102607.59;7283276;19;154891;-52
2021/10/09 05:55:58;;;;;;;;;;;;;;;20.41;78.68;102612.09;7284127;19;151913;-52
2021/10/09 05:58:35;;;;;;;;;;;;;;;20.41;78.98;102608.44;7288201;19;152780;-52
2021/10/09 06:01:28;;;;;;;;;;;;;;;20.39;79.15;102603.09;7294649;19;153556;-51
2021/10/09 06:37:21;;;;;;;;;;;;;;;20.34;79.84;102628.31;7288570;19;153686;-52
2021/10/09 06:46:02;;;;;;;;;;;;;;;20.32;79.63;102636.16;7292268;19;152075;-52
2021/10/09 07:01:18;;;;;;;;;;;;;;;20.30;79.38;102631.94;7283289;19;153531;-52
2021/10/09 07:03:45;;;;;;;;;;;;;;;20.29;79.33;102635.81;7284280;19;154045;-51
2021/10/09 07:06:15;;;;;;;;;;;;;;;20.28;79.70;102640.56;7283081;19;151992;-52
2021/10/09 07:08:43;;;;;;;;;;;;;;;20.29;79.22;102635.81;7292289;19;151877;-51
2021/10/09 07:11:10;;;;;;;;;;;;;;;20.29;79.55;102641.41;7283538;19;152039;-52
2021/10/09 07:13:36;;;;;;;;;;;;;;;20.28;79.70;102643.38;7285148;19;153239;-52
2021/10/09 07:16:03;;;;;;;;;;;;;;;20.29;79.08;102641.41;7284197;19;153429;-52
2021/10/09 07:18:30;;;;;;;;;;;;;;;20.28;79.01;102646.19;7285377;19;151994;-51
2021/10/09 07:20:57;;;;;;;;;;;;;;;20.29;79.25;102639.47;7286056;19;152151;-51
2021/10/09 07:23:27;;;;;;;;;;;;;;;20.29;79.44;102647.03;7280710;19;153270;-51
2021/10/09 07:25:54;;;;;;;;;;;;;;;20.28;79.31;102654.59;7285179;19;152560;-52
2021/10/09 07:28:21;;;;;;;;;;;;;;;20.32;78.93;102652.13;7283996;19;152081;-51
2021/10/09 07:30:47;;;;;;;;;;;;;;;20.30;79.09;102648.78;7288817;19;152289;-52
2021/10/09 07:33:14;;;;;;;;;;;;;;;20.27;78.92;102647.28;7282834;19;153653;-51
2021/10/09 07:35:41;;;;;;;;;;;;;;;20.26;79.04;102648.41;7284125;19;152989;-51
2021/10/09 07:38:08;;;;;;;;;;;;;;;20.29;78.59;102652.66;7283044;19;152080;-51
2021/10/09 07:40:35;;;;;;;;;;;;;;;20.27;78.13;102654.84;7285668;19;152877;-51
2021/10/09 07:43:01;;;;;;;;;;;;;;;20.27;78.02;102654.84;7281582;19;153845;-52
2021/10/09 07:45:28;;;;;;;;;;;;;;;20.24;78.15;102661.00;7281636;19;151805;-52
2021/10/09 07:47:55;;;;;;;;;;;;;;;20.24;77.81;102655.41;7282808;19;153294;-52
2021/10/09 07:50:22;;;;;;;;;;;;;;;20.25;77.74;102654.28;7283377;19;153386;-51
2021/10/09 07:52:49;;;;;;;;;;;;;;;20.28;77.66;102654.59;7290489;19;151755;-52
2021/10/09 07:55:15;;;;;;;;;;;;;;;20.32;77.33;102661.41;7281300;19;153808;-52
2021/10/09 07:57:42;;;;;;;;;;;;;;;20.40;77.58;102666.53;7279762;19;152010;-52
2021/10/09 08:00:09;;;;;;;;;;;;;;;20.45;77.72;102674.16;7284756;19;152726;-52
2021/10/09 08:02:36;;;;;;;;;;;;;;;20.47;77.85;102671.94;7278580;19;153856;-52
2021/10/09 08:05:04;;;;;;;;;;;;;;;20.54;78.01;102677.34;7281396;19;152014;-52
2021/10/09 08:07:31;;;;;;;;;;;;;;;20.57;77.93;102679.63;7284474;19;153229;-51
2021/10/09 08:09:58;;;;;;;;;;;;;;;20.61;78.12;102681.63;7279768;19;153209;-51
2021/10/09 08:12:25;;;;;;;;;;;;;;;20.66;78.94;102687.31;7284475;19;152520;-51
2021/10/09 08:14:51;;;;;;;;;;;;;;;20.70;79.37;102682.84;7287948;19;152605;-51
2021/10/09 08:17:18;;;;;;;;;;;;;;;20.76;79.23;102683.72;7284495;19;151777;-51
2021/10/09 08:19:45;;;;;;;;;;;;;;;20.81;79.23;102679.00;7282605;19;153973;-52
2021/10/09 08:22:12;;;;;;;;;;;;;;;20.86;79.17;102684.66;7279273;19;153285;-51
2021/10/09 08:24:49;;;;;;;;;;;;;;;20.94;78.97;102685.28;7281080;19;151969;-52
2021/10/09 08:27:36;;;;;;;;;;;;;;;21.00;79.06;102692.63;7284757;19;153077;-52
2021/10/09 08:40:03;;;;;;;;;;;;;;;21.30;76.35;102679.66;7280895;19;152509;-51
2021/10/09 08:42:30;;;;;;;;;;;;;;;21.35;75.80;102683.66;7279291;19;152590;-52
2021/10/09 08:44:57;;;;;;;;;;;;;;;21.46;75.30;102680.59;7280199;19;151952;-52
2021/10/09 08:47:23;;;;;;;;;;;;;;;21.27;66.09;102679.34;7285655;19;153483;-52
2021/10/09 08:49:50;;;;;;;;;;;;;;;21.07;63.92;102680.06;7287872;19;153392;-51
2021/10/09 08:52:20;;;;;;;;;;;;;;;20.97;62.73;102681.94;7288606;19;151741;-51
2021/10/09 08:54:47;;;;;;;;;;;;;;;20.81;62.09;102684.59;7290616;19;152735;-52
2021/10/09 08:57:17;;;;;;;;;;;;;;;20.74;61.71;102683.16;7292667;19;153956;-52
2021/10/09 08:59:48;;;;;;;;;;;;;;;20.69;61.12;102677.47;7284979;19;153154;-51
2021/10/09 09:02:21;;;;;;;;;;;;;;;20.64;61.42;102685.84;7284844;19;153814;-52
2021/10/09 09:30:57;;;;;;;;;;;;;;;21.19;64.89;102688.31;7284843;19;153955;-51
2021/10/09 09:36:07;;;;;;;;;;;;;;;21.26;65.55;102686.09;7285304;19;152342;-52
2021/10/09 09:39:04;;;;;;;;;;;;;;;21.29;65.59;102689.22;7286115;19;154381;-52
2021/10/09 09:41:30;;;;;;;;;;;;;;;21.35;65.75;102686.47;7284236;19;151847;-52
2021/10/09 09:43:57;;;;;;;;;;;;;;;21.39;65.59;102682.84;7291080;19;152100;-52
2021/10/09 09:46:26;;;;;;;;;;;;;;;21.39;66.52;102684.78;7286530;19;152104;-52
2021/10/09 09:48:53;;;;;;;;;;;;;;;21.43;65.92;102685.94;7285261;19;152928;-52
2021/10/09 09:51:21;;;;;;;;;;;;;;;21.45;66.71;102681.72;7285698;19;153957;-52
2021/10/09 09:53:48;;;;;;;;;;;;;;;21.49;66.65;102690.44;7287427;19;152326;-52
2021/10/09 09:56:16;;;;;;;;;;;;;;;21.51;66.52;102685.41;7282622;19;151802;-51
2021/10/09 09:58:44;;;;;;;;;;;;;;;21.53;66.99;102686.00;7281138;19;153838;-52
2021/10/09 10:01:12;;;;;;;;;;;;;;;21.55;66.81;102683.75;7281497;19;154006;-52
2021/10/09 10:03:45;;;;;;;;;;;;;;;21.59;67.02;102687.69;7286329;19;151875;-51
2021/10/09 10:06:12;;;;;;;;;;;;;;;21.60;67.03;102683.78;7292925;19;153347;-51
2021/10/09 10:08:41;;;;;;;;;;;;;;;21.63;67.79;102684.06;7285693;19;152098;-51
2021/10/09 10:11:09;;;;;;;;;;;;;;;21.67;68.01;102681.53;7286351;19;152941;-52
2021/10/09 10:13:37;;;;;;;;;;;;;;;21.68;67.49;102684.09;7289109;19;151706;-51
2021/10/09 10:16:05;;;;;;;;;;;;;;;21.70;67.52;102679.06;7286211;19;153571;-51
2021/10/09 10:18:35;;;;;;;;;;;;;;;21.72;67.26;102678.75;7284409;19;153618;-51
2021/10/09 10:21:02;;;;;;;;;;;;;;;21.73;67.16;102678.50;7288484;19;152203;-52
2021/10/09 10:23:32;;;;;;;;;;;;;;;21.74;66.94;102677.38;7287032;19;153455;-52
2021/10/09 10:26:02;;;;;;;;;;;;;;;21.74;66.90;102680.19;7284324;19;153953;-52
2021/10/09 10:28:29;;;;;;;;;;;;;;;21.76;66.86;102674.28;7295134;19;151457;-52
2021/10/09 10:30:59;;;;;;;;;;;;;;;21.77;66.80;102680.75;7287357;19;153328;-52
2021/10/09 10:33:29;;;;;;;;;;;;;;;21.78;67.03;102679.63;7288200;19;151803;-51
2021/10/09 10:35:56;;;;;;;;;;;;;;;21.80;66.83;102680.22;7287472;19;152658;-51
2021/10/09 10:38:45;;;;;;;;;;;;;;;21.82;66.72;102675.16;7283134;19;153236;-52
2021/10/09 10:41:17;;;;;;;;;;;;;;;21.85;66.49;102677.44;7284570;19;151817;-52
2021/10/09 10:43:47;;;;;;;;;;;;;;;21.84;66.34;102676.59;7283451;19;152649;-51
2021/10/09 10:46:17;;;;;;;;;;;;;;;21.86;66.99;102679.94;7286517;19;153423;-52
2021/10/09 10:49:04;;;;;;;;;;;;;;;21.87;66.89;102675.16;7286890;19;152021;-52
2021/10/09 10:51:46;;;;;;;;;;;;;;;21.86;66.83;102679.94;7289367;19;153174;-52
2021/10/09 10:56:46;;;;;;;;;;;;;;;21.85;66.43;102674.63;7284452;19;153382;-51
2021/10/09 10:59:16;;;;;;;;;;;;;;;21.85;66.53;102685.88;7285265;19;153915;-51
2021/10/09 11:01:43;;;;;;;;;;;;;;;21.83;66.31;102685.28;7285391;19;151703;-53
2021/10/09 11:04:10;;;;;;;;;;;;;;;21.84;66.66;102672.91;7280635;19;153322;-51
2021/10/09 11:06:37;;;;;;;;;;;;;;;21.76;67.13;102679.91;7286201;19;154334;-51
2021/10/09 11:09:04;;;;;;;;;;;;;;;21.77;66.89;102678.78;7287835;19;152024;-50
2021/10/09 11:11:33;;;;;;;;;;;;;;;21.80;67.16;102675.44;7293291;19;153411;-50
2021/10/09 11:13:59;;;;;;;;;;;;;;;21.80;66.87;102683.88;7283570;19;152378;-51
2021/10/09 11:16:28;;;;;;;;;;;;;;;21.82;66.91;102684.44;7285419;19;152277;-50
2021/10/09 11:18:56;;;;;;;;;;;;;;;21.83;67.20;102679.66;7281703;19;154265;-50
2021/10/09 11:21:23;;;;;;;;;;;;;;;21.83;67.15;102676.84;7284553;19;152276;-51
2021/10/09 11:23:52;;;;;;;;;;;;;;;21.84;66.88;102685.03;7283730;19;153399;-51
2021/10/09 11:26:19;;;;;;;;;;;;;;;21.84;67.15;102678.53;7283136;19;153691;-50
2021/10/09 11:28:46;;;;;;;;;;;;;;;21.85;66.74;102683.88;7284694;19;151758;-51
2021/10/09 11:31:15;;;;;;;;;;;;;;;21.84;67.26;102684.19;7283779;19;152156;-50
2021/10/09 11:33:42;;;;;;;;;;;;;;;21.83;66.76;102686.13;7292506;19;152451;-51
2021/10/09 11:36:09;;;;;;;;;;;;;;;21.82;66.70;102684.44;7286929;19;152524;-51
2021/10/09 11:38:36;;;;;;;;;;;;;;;21.83;66.83;102685.28;7283849;19;154099;-51
2021/10/09 11:41:12;;;;;;;;;;;;;;;21.82;66.88;102686.41;7285196;19;152062;-51
2021/10/09 11:46:25;;;;;;;;;;;;;;;21.81;66.87;102684.69;7283496;19;154477;-51
2021/10/09 11:54:05;;;;;;;;;;;;;;;21.68;61.97;102677.63;7281378;19;153411;-51
2021/10/09 11:56:40;;;;;;;;;;;;;;;21.65;61.35;102676.22;7291808;19;154149;-51
2021/10/09 11:59:08;;;;;;;;;;;;;;;21.63;62.96;102669.16;7282627;19;154097;-52
2021/10/09 12:01:36;;;;;;;;;;;;;;;21.64;64.56;102668.88;7283536;19;152620;-51
2021/10/09 12:04:06;;;;;;;;;;;;;;;21.72;65.05;102673.97;7283028;19;153349;-51
2021/10/09 12:06:36;;;;;;;;;;;;;;;21.78;64.84;102666.41;7283809;19;153790;-51
2021/10/09 12:09:07;;;;;;;;;;;;;;;21.76;65.40;102665.00;7282878;19;151913;-52
2021/10/09 12:11:34;;;;;;;;;;;;;;;21.78;64.97;102657.97;7283759;19;151757;-51
2021/10/09 12:14:04;;;;;;;;;;;;;;;21.75;65.06;102661.34;7281680;19;154042;-51
2021/10/09 12:16:33;;;;;;;;;;;;;;;21.80;65.50;102663.34;7282688;19;152027;-51
2021/10/09 12:19:03;;;;;;;;;;;;;;;21.78;65.27;102660.78;7291755;19;153781;-52
2021/10/09 12:21:32;;;;;;;;;;;;;;;21.79;64.95;102656.00;7297961;19;151852;-51
2021/10/09 12:24:10;;;;;;;;;;;;;;;21.79;65.33;102656.00;7296743;19;152682;-51
2021/10/09 12:26:37;;;;;;;;;;;;;;;21.82;65.29;102649.81;7296789;19;152775;-52
2021/10/09 12:29:17;;;;;;;;;;;;;;;21.78;65.73;102655.16;7299216;19;152620;-51
2021/10/09 12:31:46;;;;;;;;;;;;;;;21.80;65.78;102649.28;7295721;19;152811;-51
2021/10/09 12:34:16;;;;;;;;;;;;;;;21.78;65.81;102643.91;7295446;19;153476;-51
2021/10/09 12:36:43;;;;;;;;;;;;;;;21.78;65.69;102640.25;7298016;19;151660;-51
2021/10/09 12:39:12;;;;;;;;;;;;;;;21.76;65.97;102640.50;7296429;19;153326;-51
2021/10/09 12:41:39;;;;;;;;;;;;;;;21.80;65.90;102638.88;7303138;19;153275;-51
2021/10/09 12:44:06;;;;;;;;;;;;;;;21.82;65.74;102628.16;7298369;19;152658;-51
2021/10/09 12:46:33;;;;;;;;;;;;;;;21.81;65.84;102631.25;7294996;19;153437;-52
2021/10/09 12:49:02;;;;;;;;;;;;;;;21.80;66.07;102630.41;7296036;19;151838;-51
2021/10/09 12:51:29;;;;;;;;;;;;;;;21.81;65.99;102619.97;7296853;19;153320;-51
2021/10/09 12:54:02;;;;;;;;;;;;;;;21.84;66.14;102620.31;7297877;19;153654;-51
2021/10/09 12:56:29;;;;;;;;;;;;;;;21.84;65.87;102611.00;7297188;19;151803;-51
2021/10/09 12:58:56;;;;;;;;;;;;;;;21.82;66.18;102611.28;7295751;19;152587;-51
2021/10/09 13:01:23;;;;;;;;;;;;;;;21.83;66.04;102612.97;7296012;19;153346;-51
2021/10/09 13:03:50;;;;;;;;;;;;;;;21.80;66.50;102601.44;7304167;19;151662;-51
2021/10/09 13:06:17;;;;;;;;;;;;;;;21.81;66.62;102603.94;7296332;19;153359;-51
2021/10/09 13:08:44;;;;;;;;;;;;;;;21.80;66.26;102607.06;7296909;19;151984;-51
2021/10/09 13:11:11;;;;;;;;;;;;;;;21.78;66.12;102596.06;7296259;19;152787;-51
2021/10/09 13:13:39;;;;;;;;;;;;;;;21.79;66.48;102602.56;7294426;19;153872;-51
2021/10/09 13:16:07;;;;;;;;;;;;;;;21.79;66.01;102599.72;7296545;19;151714;-52
2021/10/09 13:18:34;;;;;;;;;;;;;;;21.81;66.28;102597.47;7298316;19;152854;-51
2021/10/09 13:21:12;;;;;;;;;;;;;;;21.79;66.15;102596.91;7296656;19;154142;-51
2021/10/09 13:23:39;;;;;;;;;;;;;;;21.77;66.49;102594.38;7304696;19;151761;-51
2021/10/09 13:26:06;;;;;;;;;;;;;;;21.76;66.56;102595.50;7295360;19;152258;-51
2021/10/09 13:28:36;;;;;;;;;;;;;;;21.74;66.00;102592.97;7293023;19;152273;-51
2021/10/09 13:31:04;;;;;;;;;;;;;;;21.74;66.12;102587.34;7290859;19;152528;-51
2021/10/09 13:33:31;;;;;;;;;;;;;;;21.73;66.32;102582.84;7287257;19;153356;-51
2021/10/09 13:35:58;;;;;;;;;;;;;;;21.72;66.36;102581.13;7287596;19;152024;-51
2021/10/09 13:38:30;;;;;;;;;;;;;;;21.71;66.32;102579.44;7287120;19;152651;-51
2021/10/09 13:40:57;;;;;;;;;;;;;;;21.71;66.41;102578.63;7287102;19;154187;-51
2021/10/09 13:43:24;;;;;;;;;;;;;;;21.70;66.03;102585.38;7288687;19;151533;-51
2021/10/09 13:45:50;;;;;;;;;;;;;;;21.69;66.03;102578.88;7290755;19;153673;-51
2021/10/09 13:48:17;;;;;;;;;;;;;;;21.68;66.25;102581.97;7288322;19;151808;-51
2021/10/09 13:50:48;;;;;;;;;;;;;;;21.67;65.96;102577.47;7288794;19;152821;-51
2021/10/09 13:53:15;;;;;;;;;;;;;;;21.68;66.23;102576.34;7286144;19;153398;-51
2021/10/09 13:55:42;;;;;;;;;;;;;;;21.67;66.08;102574.66;7288847;19;151750;-51
2021/10/09 13:58:10;;;;;;;;;;;;;;;21.66;66.21;102572.97;7289281;19;153622;-51
2021/10/09 14:00:37;;;;;;;;;;;;;;;21.65;65.99;102563.69;7288128;19;152202;-51
2021/10/09 14:03:05;;;;;;;;;;;;;;;21.66;65.91;102571.00;7285815;19;152181;-51
2021/10/09 14:05:32;;;;;;;;;;;;;;;21.65;65.78;102568.47;7286036;19;153555;-51
2021/10/09 14:07:59;;;;;;;;;;;;;;;21.65;66.04;102563.69;7292289;19;153251;-51
2021/10/09 14:10:26;;;;;;;;;;;;;;;21.63;65.85;102571.53;7287424;19;152767;-52
2021/10/09 14:12:53;;;;;;;;;;;;;;;21.65;65.71;102563.69;7286976;19;154981;-51
2021/10/09 14:15:20;;;;;;;;;;;;;;;21.73;65.90;102565.97;7289304;19;151781;-52
2021/10/09 14:17:47;;;;;;;;;;;;;;;21.69;65.43;102562.00;7287743;19;153334;-52
2021/10/09 14:20:14;;;;;;;;;;;;;;;21.68;65.81;102557.50;7286227;19;152249;-52
2021/10/09 14:22:41;;;;;;;;;;;;;;;21.69;64.79;102562.00;7286915;19;152546;-52
2021/10/09 14:25:09;;;;;;;;;;;;;;;21.62;63.28;102550.16;7286099;19;152775;-52
2021/10/09 14:27:36;;;;;;;;;;;;;;;21.59;63.25;102559.16;7283798;19;153925;-52
2021/10/09 14:30:04;;;;;;;;;;;;;;;21.58;63.85;102560.28;7291627;19;151919;-51
2021/10/09 14:32:31;;;;;;;;;;;;;;;21.57;64.55;102549.31;7283374;19;154510;-52
2021/10/09 14:34:58;;;;;;;;;;;;;;;21.56;65.14;102550.44;7287274;19;151743;-52